Worsley, Canada
Current Conditions -  °F | °C
As of 5:00 AM on Thursday 27 Nov 2014 (Local Time) from CYPE Reporting Station
Light Snow Light Snow  
Wind Chill: -20°   Ceiling: 1500
Heat Index:   Visibility: 15mi
Dew Point: -6°   Wind: 15mph
Humidity: 78%   Direction: 10°N
Pressure: 30.26"   Gusts: NA
Location:  56.52°N, 119.07°W
Report Text: CYPE 271200Z 01013KT 15SM -SN OVC015 M18/M21 A3026 RMK SC8 SLP297
Loading
Personal Weather Stations






























Interactive Weather Map New forecast layout! Learn more

10-Day Weather Forecast

Advertisements
Track Severe Weather on mobile